Apple Valley, North Dakota
Current Conditions -  °F | °C
As of 12:52 PM on Friday 21 Nov 2014 (Local Time) from KBIS Reporting Station
Clear Clear  
Wind Chill: 36°   Ceiling: Unl
Heat Index: 41°   Visibility: 10mi
Dew Point: 27°   Wind: 7mph
Humidity: 57%   Direction: 220°SW
Pressure: 29.73"   Gusts: NA
Location:  46.8954°N, 100.519°W
Report Text: KBIS 211852Z 22006KT 10SM CLR 05/M03 A2973 RMK AO2 SLP086 T00501028
Loading
Personal Weather Stations






























Interactive Weather Map New forecast layout! Learn more

10-Day Weather Forecast

Advertisements
Track Severe Weather on mobile